sensor_id;sensor_type;location;lat;lon;timestamp;temperature;humidity
67893;DHT22;54688;52.376;16.744;2023-05-10T00:00:06;7.5;53.9
67893;DHT22;54688;52.376;16.744;2023-05-10T00:03:42;7.5;54.4
67893;DHT22;54688;52.376;16.744;2023-05-10T00:06:44;7.4;54.7
67893;DHT22;54688;52.376;16.744;2023-05-10T00:09:46;7.3;54.8
67893;DHT22;54688;52.376;16.744;2023-05-10T00:12:48;7.3;54.7
67893;DHT22;54688;52.376;16.744;2023-05-10T00:15:50;7.3;54.8
67893;DHT22;54688;52.376;16.744;2023-05-10T00:18:52;7.2;55.1
67893;DHT22;54688;52.376;16.744;2023-05-10T00:21:54;7.1;55.3
67893;DHT22;54688;52.376;16.744;2023-05-10T00:24:56;7.1;55.1
67893;DHT22;54688;52.376;16.744;2023-05-10T00:27:59;7.1;55.4
67893;DHT22;54688;52.376;16.744;2023-05-10T00:31:01;7;55.7
67893;DHT22;54688;52.376;16.744;2023-05-10T00:34:03;7;55.8
67893;DHT22;54688;52.376;16.744;2023-05-10T00:37:05;6.9;55.7
67893;DHT22;54688;52.376;16.744;2023-05-10T00:40:07;6.8;56
67893;DHT22;54688;52.376;16.744;2023-05-10T00:43:10;6.8;56
67893;DHT22;54688;52.376;16.744;2023-05-10T00:46:12;6.7;57.1
67893;DHT22;54688;52.376;16.744;2023-05-10T00:49:16;6.7;56.2
67893;DHT22;54688;52.376;16.744;2023-05-10T00:52:18;6.7;56.6
67893;DHT22;54688;52.376;16.744;2023-05-10T00:55:20;6.6;56.7
67893;DHT22;54688;52.376;16.744;2023-05-10T00:58:22;6.6;57.1
67893;DHT22;54688;52.376;16.744;2023-05-10T01:01:24;6.5;57.4
67893;DHT22;54688;52.376;16.744;2023-05-10T01:04:27;6.5;57.6
67893;DHT22;54688;52.376;16.744;2023-05-10T01:07:29;6.4;57.5
67893;DHT22;54688;52.376;16.744;2023-05-10T01:10:31;6.4;57.4
67893;DHT22;54688;52.376;16.744;2023-05-10T01:13:34;6.4;58.3
67893;DHT22;54688;52.376;16.744;2023-05-10T01:16:38;6.3;57.6
67893;DHT22;54688;52.376;16.744;2023-05-10T01:19:42;6.3;57.8
67893;DHT22;54688;52.376;16.744;2023-05-10T01:25:03;6.2;57.8
67893;DHT22;54688;52.376;16.744;2023-05-10T01:28:20;6.2;58.2
67893;DHT22;54688;52.376;16.744;2023-05-10T01:34:47;6;59.1
67893;DHT22;54688;52.376;16.744;2023-05-10T01:37:57;6;58.6
67893;DHT22;54688;52.376;16.744;2023-05-10T01:41:07;5.9;58.7
67893;DHT22;54688;52.376;16.744;2023-05-10T01:44:16;5.9;58.8
67893;DHT22;54688;52.376;16.744;2023-05-10T01:47:26;5.8;59
67893;DHT22;54688;52.376;16.744;2023-05-10T01:50:37;5.8;59.2
67893;DHT22;54688;52.376;16.744;2023-05-10T01:53:41;5.7;59.1
67893;DHT22;54688;52.376;16.744;2023-05-10T01:56:44;5.7;59.2
67893;DHT22;54688;52.376;16.744;2023-05-10T01:59:50;5.7;59.4
67893;DHT22;54688;52.376;16.744;2023-05-10T02:02:54;5.7;59.7
67893;DHT22;54688;52.376;16.744;2023-05-10T02:05:57;5.6;59.9
67893;DHT22;54688;52.376;16.744;2023-05-10T02:09:00;5.6;60
67893;DHT22;54688;52.376;16.744;2023-05-10T02:12:04;5.6;60
67893;DHT22;54688;52.376;16.744;2023-05-10T02:15:08;5.5;59.9
67893;DHT22;54688;52.376;16.744;2023-05-10T02:18:11;5.5;59.9
67893;DHT22;54688;52.376;16.744;2023-05-10T02:21:15;5.4;60
67893;DHT22;54688;52.376;16.744;2023-05-10T02:24:18;5.4;60.2
67893;DHT22;54688;52.376;16.744;2023-05-10T02:27:21;5.4;60.4
67893;DHT22;54688;52.376;16.744;2023-05-10T02:30:25;5.3;60.6
67893;DHT22;54688;52.376;16.744;2023-05-10T02:33:29;5.3;60.8
67893;DHT22;54688;52.376;16.744;2023-05-10T02:36:33;5.2;60.9
67893;DHT22;54688;52.376;16.744;2023-05-10T02:39:36;5.2;61.1
67893;DHT22;54688;52.376;16.744;2023-05-10T02:42:40;5.1;61.2
67893;DHT22;54688;52.376;16.744;2023-05-10T02:45:43;5.1;61.4
67893;DHT22;54688;52.376;16.744;2023-05-10T02:48:49;5.1;61.7
67893;DHT22;54688;52.376;16.744;2023-05-10T02:51:51;5;61.9
67893;DHT22;54688;52.376;16.744;2023-05-10T02:54:58;5;62
67893;DHT22;54688;52.376;16.744;2023-05-10T02:58:04;5;62.1
67893;DHT22;54688;52.376;16.744;2023-05-10T03:01:06;4.9;62.2
67893;DHT22;54688;52.376;16.744;2023-05-10T03:04:08;4.9;62.3
67893;DHT22;54688;52.376;16.744;2023-05-10T03:07:11;4.9;62.5
67893;DHT22;54688;52.376;16.744;2023-05-10T03:10:13;4.9;62.5
67893;DHT22;54688;52.376;16.744;2023-05-10T03:13:16;4.8;62.8
67893;DHT22;54688;52.376;16.744;2023-05-10T03:16:29;4.8;62.9
67893;DHT22;54688;52.376;16.744;2023-05-10T03:19:37;4.8;63
67893;DHT22;54688;52.376;16.744;2023-05-10T03:22:45;4.8;63.2
67893;DHT22;54688;52.376;16.744;2023-05-10T03:25:51;4.8;63.6
67893;DHT22;54688;52.376;16.744;2023-05-10T03:28:53;4.7;63.6
67893;DHT22;54688;52.376;16.744;2023-05-10T03:31:57;4.7;63.5
67893;DHT22;54688;52.376;16.744;2023-05-10T03:35:00;4.7;63.7
67893;DHT22;54688;52.376;16.744;2023-05-10T03:38:02;4.7;63.9
67893;DHT22;54688;52.376;16.744;2023-05-10T03:41:04;4.7;64
67893;DHT22;54688;52.376;16.744;2023-05-10T03:44:07;4.7;64.1
67893;DHT22;54688;52.376;16.744;2023-05-10T03:47:09;4.7;64.2
67893;DHT22;54688;52.376;16.744;2023-05-10T03:50:10;4.7;64.3
67893;DHT22;54688;52.376;16.744;2023-05-10T03:53:12;4.7;64.2
67893;DHT22;54688;52.376;16.744;2023-05-10T03:56:14;4.8;64.3
67893;DHT22;54688;52.376;16.744;2023-05-10T03:59:16;4.7;64.3
67893;DHT22;54688;52.376;16.744;2023-05-10T04:02:18;4.7;64.3
67893;DHT22;54688;52.376;16.744;2023-05-10T04:05:20;4.7;64.3
67893;DHT22;54688;52.376;16.744;2023-05-10T04:08:23;4.8;64.5
67893;DHT22;54688;52.376;16.744;2023-05-10T04:11:25;4.8;64.5
67893;DHT22;54688;52.376;16.744;2023-05-10T04:14:27;4.8;64.5
67893;DHT22;54688;52.376;16.744;2023-05-10T04:17:30;4.8;64.5
67893;DHT22;54688;52.376;16.744;2023-05-10T04:20:32;4.9;64.6
67893;DHT22;54688;52.376;16.744;2023-05-10T04:23:34;4.9;64.4
67893;DHT22;54688;52.376;16.744;2023-05-10T04:26:36;5;64.4
67893;DHT22;54688;52.376;16.744;2023-05-10T04:29:38;5;64.1
67893;DHT22;54688;52.376;16.744;2023-05-10T04:32:41;5.1;64.2
67893;DHT22;54688;52.376;16.744;2023-05-10T04:35:43;5.1;64
67893;DHT22;54688;52.376;16.744;2023-05-10T04:38:45;5.1;64.1
67893;DHT22;54688;52.376;16.744;2023-05-10T04:41:48;5.2;64
67893;DHT22;54688;52.376;16.744;2023-05-10T04:44:50;5.3;64.1
67893;DHT22;54688;52.376;16.744;2023-05-10T04:47:52;5.4;63.9
67893;DHT22;54688;52.376;16.744;2023-05-10T04:50:54;5.4;63.8
67893;DHT22;54688;52.376;16.744;2023-05-10T04:53:56;5.5;63.7
67893;DHT22;54688;52.376;16.744;2023-05-10T04:56:59;5.5;63.6
67893;DHT22;54688;52.376;16.744;2023-05-10T05:00:00;5.6;63.4
67893;DHT22;54688;52.376;16.744;2023-05-10T05:03:03;5.7;63.2
67893;DHT22;54688;52.376;16.744;2023-05-10T05:06:05;5.8;62.9
67893;DHT22;54688;52.376;16.744;2023-05-10T05:09:07;5.9;62.7
67893;DHT22;54688;52.376;16.744;2023-05-10T05:12:09;5.9;62.6
67893;DHT22;54688;52.376;16.744;2023-05-10T05:15:12;6;62.4
67893;DHT22;54688;52.376;16.744;2023-05-10T05:18:14;6.1;62.1
67893;DHT22;54688;52.376;16.744;2023-05-10T05:21:17;6.2;62.1
67893;DHT22;54688;52.376;16.744;2023-05-10T05:24:20;6.4;62
67893;DHT22;54688;52.376;16.744;2023-05-10T05:27:22;6.5;61.8
67893;DHT22;54688;52.376;16.744;2023-05-10T05:30:24;6.5;61.5
67893;DHT22;54688;52.376;16.744;2023-05-10T05:33:26;6.6;61.5
67893;DHT22;54688;52.376;16.744;2023-05-10T05:36:29;6.7;61.3
67893;DHT22;54688;52.376;16.744;2023-05-10T05:39:31;6.8;60.8
67893;DHT22;54688;52.376;16.744;2023-05-10T05:42:33;6.9;60.1
67893;DHT22;54688;52.376;16.744;2023-05-10T05:45:35;6.9;60.5
67893;DHT22;54688;52.376;16.744;2023-05-10T05:48:37;7;60.4
67893;DHT22;54688;52.376;16.744;2023-05-10T05:51:39;7.1;60.3
67893;DHT22;54688;52.376;16.744;2023-05-10T05:54:41;7.2;60.4
67893;DHT22;54688;52.376;16.744;2023-05-10T05:57:43;7.3;60.2
67893;DHT22;54688;52.376;16.744;2023-05-10T06:00:45;7.4;60
67893;DHT22;54688;52.376;16.744;2023-05-10T06:03:47;7.5;59.4
67893;DHT22;54688;52.376;16.744;2023-05-10T06:06:49;7.6;59.4
67893;DHT22;54688;52.376;16.744;2023-05-10T06:09:51;7.7;59.3
67893;DHT22;54688;52.376;16.744;2023-05-10T06:12:54;7.8;58.9
67893;DHT22;54688;52.376;16.744;2023-05-10T06:15:56;7.9;59
67893;DHT22;54688;52.376;16.744;2023-05-10T06:18:58;7.9;59
67893;DHT22;54688;52.376;16.744;2023-05-10T06:22:00;8;58.7
67893;DHT22;54688;52.376;16.744;2023-05-10T06:25:02;8.1;58.4
67893;DHT22;54688;52.376;16.744;2023-05-10T06:28:04;8.2;58.1
67893;DHT22;54688;52.376;16.744;2023-05-10T06:31:06;8.3;57.8
67893;DHT22;54688;52.376;16.744;2023-05-10T06:34:09;8.5;57.7
67893;DHT22;54688;52.376;16.744;2023-05-10T06:37:11;8.6;57.3
67893;DHT22;54688;52.376;16.744;2023-05-10T06:40:13;8.7;56.9
67893;DHT22;54688;52.376;16.744;2023-05-10T06:43:15;8.8;56.9
67893;DHT22;54688;52.376;16.744;2023-05-10T06:46:17;8.9;56.9
67893;DHT22;54688;52.376;16.744;2023-05-10T06:49:19;9;56.5
67893;DHT22;54688;52.376;16.744;2023-05-10T06:52:21;9.2;56.4
67893;DHT22;54688;52.376;16.744;2023-05-10T06:55:23;9.3;55.9
67893;DHT22;54688;52.376;16.744;2023-05-10T06:58:25;9.4;55.6
67893;DHT22;54688;52.376;16.744;2023-05-10T07:01:27;9.5;55.6
67893;DHT22;54688;52.376;16.744;2023-05-10T07:04:30;9.6;55.4
67893;DHT22;54688;52.376;16.744;2023-05-10T07:07:31;9.8;54.7
67893;DHT22;54688;52.376;16.744;2023-05-10T07:10:33;9.9;54.4
67893;DHT22;54688;52.376;16.744;2023-05-10T07:13:36;10.1;53.9
67893;DHT22;54688;52.376;16.744;2023-05-10T07:16:37;10.2;53.6
67893;DHT22;54688;52.376;16.744;2023-05-10T07:19:40;10.4;53.2
67893;DHT22;54688;52.376;16.744;2023-05-10T07:22:41;10.5;53.3
67893;DHT22;54688;52.376;16.744;2023-05-10T07:25:44;10.7;51.5
67893;DHT22;54688;52.376;16.744;2023-05-10T07:28:47;10.8;51.5
67893;DHT22;54688;52.376;16.744;2023-05-10T07:31:49;11;51.9
67893;DHT22;54688;52.376;16.744;2023-05-10T07:34:50;11;51.5
67893;DHT22;54688;52.376;16.744;2023-05-10T07:37:52;11.2;50.9
67893;DHT22;54688;52.376;16.744;2023-05-10T07:40:54;11.2;51.1
67893;DHT22;54688;52.376;16.744;2023-05-10T07:43:56;11.3;50.6
67893;DHT22;54688;52.376;16.744;2023-05-10T07:46:58;11.5;50.1
67893;DHT22;54688;52.376;16.744;2023-05-10T07:50:00;11.7;49.2
67893;DHT22;54688;52.376;16.744;2023-05-10T07:53:02;11.8;49.2
67893;DHT22;54688;52.376;16.744;2023-05-10T07:56:19;12;48.7
67893;DHT22;54688;52.376;16.744;2023-05-10T07:59:22;12.1;48.7
67893;DHT22;54688;52.376;16.744;2023-05-10T08:02:24;12.2;48.6
67893;DHT22;54688;52.376;16.744;2023-05-10T08:05:26;12.3;48.2
67893;DHT22;54688;52.376;16.744;2023-05-10T08:08:28;12.4;48.2
67893;DHT22;54688;52.376;16.744;2023-05-10T08:11:30;12.5;48.4
67893;DHT22;54688;52.376;16.744;2023-05-10T08:14:31;12.6;47.7
67893;DHT22;54688;52.376;16.744;2023-05-10T08:17:33;12.7;47.7
67893;DHT22;54688;52.376;16.744;2023-05-10T08:20:35;12.8;47.4
67893;DHT22;54688;52.376;16.744;2023-05-10T08:23:37;12.9;47.3
67893;DHT22;54688;52.376;16.744;2023-05-10T08:26:39;13;47.1
67893;DHT22;54688;52.376;16.744;2023-05-10T08:29:42;13.1;46.9
67893;DHT22;54688;52.376;16.744;2023-05-10T08:32:44;13.2;46.4
67893;DHT22;54688;52.376;16.744;2023-05-10T08:35:46;13.3;46.4
67893;DHT22;54688;52.376;16.744;2023-05-10T08:38:49;13.4;46.3
67893;DHT22;54688;52.376;16.744;2023-05-10T08:41:52;13.7;45.7
67893;DHT22;54688;52.376;16.744;2023-05-10T08:44:59;13.8;45.4
67893;DHT22;54688;52.376;16.744;2023-05-10T08:48:01;13.9;44.5
67893;DHT22;54688;52.376;16.744;2023-05-10T08:51:03;14.1;43.9
67893;DHT22;54688;52.376;16.744;2023-05-10T08:54:06;14.2;43.5
67893;DHT22;54688;52.376;16.744;2023-05-10T08:57:08;14.3;42.8
67893;DHT22;54688;52.376;16.744;2023-05-10T09:00:11;14.4;43.6
67893;DHT22;54688;52.376;16.744;2023-05-10T09:03:15;14.5;41
67893;DHT22;54688;52.376;16.744;2023-05-10T09:06:18;14.6;41
67893;DHT22;54688;52.376;16.744;2023-05-10T09:12:20;14.8;39.9
67893;DHT22;54688;52.376;16.744;2023-05-10T09:15:22;14.9;40
67893;DHT22;54688;52.376;16.744;2023-05-10T09:18:25;15;39.7
67893;DHT22;54688;52.376;16.744;2023-05-10T09:21:26;15.2;38.7
67893;DHT22;54688;52.376;16.744;2023-05-10T09:24:29;15.3;38.5
67893;DHT22;54688;52.376;16.744;2023-05-10T09:27:31;15.4;38.2
67893;DHT22;54688;52.376;16.744;2023-05-10T09:30:33;15.5;37.5
67893;DHT22;54688;52.376;16.744;2023-05-10T09:33:43;15.6;38.1
67893;DHT22;54688;52.376;16.744;2023-05-10T09:36:53;15.7;38
67893;DHT22;54688;52.376;16.744;2023-05-10T09:39:56;15.8;38.1
67893;DHT22;54688;52.376;16.744;2023-05-10T09:42:58;15.9;36.2
67893;DHT22;54688;52.376;16.744;2023-05-10T09:46:01;15.9;36.1
67893;DHT22;54688;52.376;16.744;2023-05-10T09:49:11;16;36.2
67893;DHT22;54688;52.376;16.744;2023-05-10T09:52:16;16.1;36.7
67893;DHT22;54688;52.376;16.744;2023-05-10T09:55:18;16.1;36.2
67893;DHT22;54688;52.376;16.744;2023-05-10T09:58:21;16.2;35.8
67893;DHT22;54688;52.376;16.744;2023-05-10T10:01:25;16.4;35.2
67893;DHT22;54688;52.376;16.744;2023-05-10T10:04:28;16.5;35
67893;DHT22;54688;52.376;16.744;2023-05-10T10:07:30;16.6;34.4
67893;DHT22;54688;52.376;16.744;2023-05-10T10:10:32;16.7;35.3
67893;DHT22;54688;52.376;16.744;2023-05-10T10:13:35;16.8;34.1
67893;DHT22;54688;52.376;16.744;2023-05-10T10:16:37;16.9;34.1
67893;DHT22;54688;52.376;16.744;2023-05-10T10:19:39;17;34.3
67893;DHT22;54688;52.376;16.744;2023-05-10T10:22:41;17.1;33.9
67893;DHT22;54688;52.376;16.744;2023-05-10T10:25:44;17.1;34.3
67893;DHT22;54688;52.376;16.744;2023-05-10T10:28:48;17.3;33.6
67893;DHT22;54688;52.376;16.744;2023-05-10T10:31:55;17.3;34.2
67893;DHT22;54688;52.376;16.744;2023-05-10T10:35:05;17.4;32.4
67893;DHT22;54688;52.376;16.744;2023-05-10T10:38:08;17.5;32.8
67893;DHT22;54688;52.376;16.744;2023-05-10T10:41:26;17.6;33
67893;DHT22;54688;52.376;16.744;2023-05-10T10:44:33;17.7;32.7
67893;DHT22;54688;52.376;16.744;2023-05-10T10:47:37;17.8;33
67893;DHT22;54688;52.376;16.744;2023-05-10T10:50:43;17.9;33.4
67893;DHT22;54688;52.376;16.744;2023-05-10T10:53:45;18;32.4
67893;DHT22;54688;52.376;16.744;2023-05-10T10:57:05;18;32.5
67893;DHT22;54688;52.376;16.744;2023-05-10T11:00:20;18.1;32.7
67893;DHT22;54688;52.376;16.744;2023-05-10T11:03:24;18.2;32.8
67893;DHT22;54688;52.376;16.744;2023-05-10T11:06:29;18.3;32.6
67893;DHT22;54688;52.376;16.744;2023-05-10T11:09:36;18.4;32.4
67893;DHT22;54688;52.376;16.744;2023-05-10T11:12:50;18.5;32.3
67893;DHT22;54688;52.376;16.744;2023-05-10T11:15:52;18.6;32
67893;DHT22;54688;52.376;16.744;2023-05-10T11:18:57;18.6;31.3
67893;DHT22;54688;52.376;16.744;2023-05-10T11:22:15;18.7;31.1
67893;DHT22;54688;52.376;16.744;2023-05-10T11:25:18;18.9;31.7
67893;DHT22;54688;52.376;16.744;2023-05-10T11:28:20;19;31.6
67893;DHT22;54688;52.376;16.744;2023-05-10T11:31:23;19.2;30.5
67893;DHT22;54688;52.376;16.744;2023-05-10T11:34:25;19.4;31.5
67893;DHT22;54688;52.376;16.744;2023-05-10T11:37:28;19.5;30.1
67893;DHT22;54688;52.376;16.744;2023-05-10T11:40:29;19.7;30.3
67893;DHT22;54688;52.376;16.744;2023-05-10T11:43:31;19.8;30.4
67893;DHT22;54688;52.376;16.744;2023-05-10T11:46:33;19.9;29.4
67893;DHT22;54688;52.376;16.744;2023-05-10T11:49:36;20;29.7
67893;DHT22;54688;52.376;16.744;2023-05-10T11:52:37;20.1;29.7
67893;DHT22;54688;52.376;16.744;2023-05-10T11:55:39;20.2;30
67893;DHT22;54688;52.376;16.744;2023-05-10T11:58:41;20.4;30
67893;DHT22;54688;52.376;16.744;2023-05-10T12:01:42;20.5;29.1
67893;DHT22;54688;52.376;16.744;2023-05-10T12:04:44;20.6;29.3
67893;DHT22;54688;52.376;16.744;2023-05-10T12:07:47;20.8;29.2
67893;DHT22;54688;52.376;16.744;2023-05-10T12:10:49;21;28.8
67893;DHT22;54688;52.376;16.744;2023-05-10T12:13:52;21.2;28.7
67893;DHT22;54688;52.376;16.744;2023-05-10T12:16:56;21.5;28
67893;DHT22;54688;52.376;16.744;2023-05-10T12:19:59;21.7;27.5
67893;DHT22;54688;52.376;16.744;2023-05-10T12:23:01;22;28
67893;DHT22;54688;52.376;16.744;2023-05-10T12:26:04;22.2;27.7
67893;DHT22;54688;52.376;16.744;2023-05-10T12:29:14;22.4;27
67893;DHT22;54688;52.376;16.744;2023-05-10T12:32:17;22.6;26.6
67893;DHT22;54688;52.376;16.744;2023-05-10T12:35:19;22.9;27.1
67893;DHT22;54688;52.376;16.744;2023-05-10T12:38:26;23.1;26.2
67893;DHT22;54688;52.376;16.744;2023-05-10T12:41:29;23.3;26.4
67893;DHT22;54688;52.376;16.744;2023-05-10T12:44:31;23.5;26.2
67893;DHT22;54688;52.376;16.744;2023-05-10T12:47:33;23.7;26.3
67893;DHT22;54688;52.376;16.744;2023-05-10T12:50:36;23.9;26.1
67893;DHT22;54688;52.376;16.744;2023-05-10T12:53:37;24.1;25.4
67893;DHT22;54688;52.376;16.744;2023-05-10T12:56:40;24.2;25.7
67893;DHT22;54688;52.376;16.744;2023-05-10T12:59:42;24.3;25
67893;DHT22;54688;52.376;16.744;2023-05-10T13:02:45;24.5;25.3
67893;DHT22;54688;52.376;16.744;2023-05-10T13:05:47;24.7;25.4
67893;DHT22;54688;52.376;16.744;2023-05-10T13:08:50;24.8;25
67893;DHT22;54688;52.376;16.744;2023-05-10T13:11:52;25;24.8
67893;DHT22;54688;52.376;16.744;2023-05-10T13:14:54;25.1;24.2
67893;DHT22;54688;52.376;16.744;2023-05-10T13:17:56;25.2;24.3
67893;DHT22;54688;52.376;16.744;2023-05-10T13:20:58;25.3;24.5
67893;DHT22;54688;52.376;16.744;2023-05-10T13:26:59;25.5;24.5
67893;DHT22;54688;52.376;16.744;2023-05-10T13:30:04;25.5;24.2
67893;DHT22;54688;52.376;16.744;2023-05-10T13:33:07;25.7;24.4
67893;DHT22;54688;52.376;16.744;2023-05-10T13:36:09;25.9;24.1
67893;DHT22;54688;52.376;16.744;2023-05-10T13:39:11;26.1;23.7
67893;DHT22;54688;52.376;16.744;2023-05-10T13:42:13;26.3;23.8
67893;DHT22;54688;52.376;16.744;2023-05-10T13:45:16;26.4;24.1
67893;DHT22;54688;52.376;16.744;2023-05-10T13:48:18;26.4;23.1
67893;DHT22;54688;52.376;16.744;2023-05-10T13:51:21;26.4;23.8
67893;DHT22;54688;52.376;16.744;2023-05-10T13:54:23;26.5;23.5
67893;DHT22;54688;52.376;16.744;2023-05-10T13:57:25;26.6;23.2
67893;DHT22;54688;52.376;16.744;2023-05-10T14:00:27;26.9;23.6
67893;DHT22;54688;52.376;16.744;2023-05-10T14:03:29;27.1;23.5
67893;DHT22;54688;52.376;16.744;2023-05-10T14:06:31;27.4;22.8
67893;DHT22;54688;52.376;16.744;2023-05-10T14:09:34;27.8;22.8
67893;DHT22;54688;52.376;16.744;2023-05-10T14:12:37;28;22.4
67893;DHT22;54688;52.376;16.744;2023-05-10T14:15:39;28.3;22.1
67893;DHT22;54688;52.376;16.744;2023-05-10T14:18:41;28.4;21.8
67893;DHT22;54688;52.376;16.744;2023-05-10T14:21:42;28.4;22.2
67893;DHT22;54688;52.376;16.744;2023-05-10T14:24:44;28.5;22
67893;DHT22;54688;52.376;16.744;2023-05-10T14:27:46;28.6;21.9
67893;DHT22;54688;52.376;16.744;2023-05-10T14:30:49;28.7;21.8
67893;DHT22;54688;52.376;16.744;2023-05-10T14:33:51;28.8;22.3
67893;DHT22;54688;52.376;16.744;2023-05-10T14:36:53;28.9;22.1
67893;DHT22;54688;52.376;16.744;2023-05-10T14:39:56;29;22.1
67893;DHT22;54688;52.376;16.744;2023-05-10T14:42:58;29;21.9
67893;DHT22;54688;52.376;16.744;2023-05-10T14:46:00;28.9;21.9
67893;DHT22;54688;52.376;16.744;2023-05-10T14:49:02;28.9;22
67893;DHT22;54688;52.376;16.744;2023-05-10T14:52:04;28.9;21.7
67893;DHT22;54688;52.376;16.744;2023-05-10T14:55:07;28.9;21.6
67893;DHT22;54688;52.376;16.744;2023-05-10T14:58:10;29;21.6
67893;DHT22;54688;52.376;16.744;2023-05-10T15:01:12;29.2;21.2
67893;DHT22;54688;52.376;16.744;2023-05-10T15:04:15;29.4;21.4
67893;DHT22;54688;52.376;16.744;2023-05-10T15:07:17;29.5;21.7
67893;DHT22;54688;52.376;16.744;2023-05-10T15:10:20;29.5;21.4
67893;DHT22;54688;52.376;16.744;2023-05-10T15:13:22;29.7;21.3
67893;DHT22;54688;52.376;16.744;2023-05-10T15:16:24;30.1;20.9
67893;DHT22;54688;52.376;16.744;2023-05-10T15:19:27;30.3;20.7
67893;DHT22;54688;52.376;16.744;2023-05-10T15:22:28;30.2;20.7
67893;DHT22;54688;52.376;16.744;2023-05-10T15:25:31;30.2;20.9
67893;DHT22;54688;52.376;16.744;2023-05-10T15:28:33;30.2;20.7
67893;DHT22;54688;52.376;16.744;2023-05-10T15:31:35;30.4;21.2
67893;DHT22;54688;52.376;16.744;2023-05-10T15:34:38;30.4;21
67893;DHT22;54688;52.376;16.744;2023-05-10T15:37:40;30.1;20.8
67893;DHT22;54688;52.376;16.744;2023-05-10T15:40:43;29.8;21
67893;DHT22;54688;52.376;16.744;2023-05-10T15:43:45;29.6;21.5
67893;DHT22;54688;52.376;16.744;2023-05-10T15:49:47;29.2;21.3
67893;DHT22;54688;52.376;16.744;2023-05-10T15:52:50;28.9;21.5
67893;DHT22;54688;52.376;16.744;2023-05-10T15:55:52;28.5;22
67893;DHT22;54688;52.376;16.744;2023-05-10T15:58:54;28.2;22.1
67893;DHT22;54688;52.376;16.744;2023-05-10T16:01:56;28;22.3
67893;DHT22;54688;52.376;16.744;2023-05-10T16:04:59;27.8;22.4
67893;DHT22;54688;52.376;16.744;2023-05-10T16:08:01;27.9;22.6
67893;DHT22;54688;52.376;16.744;2023-05-10T16:11:02;28.3;22.6
67893;DHT22;54688;52.376;16.744;2023-05-10T16:14:05;28.6;22.1
67893;DHT22;54688;52.376;16.744;2023-05-10T16:17:08;28.7;21.6
67893;DHT22;54688;52.376;16.744;2023-05-10T16:20:10;28.6;21.7
67893;DHT22;54688;52.376;16.744;2023-05-10T16:23:13;28.6;21.8
67893;DHT22;54688;52.376;16.744;2023-05-10T16:26:15;28.7;21.9
67893;DHT22;54688;52.376;16.744;2023-05-10T16:29:17;28.9;21.6
67893;DHT22;54688;52.376;16.744;2023-05-10T16:32:19;29.1;21.4
67893;DHT22;54688;52.376;16.744;2023-05-10T16:35:22;29.3;21.2
67893;DHT22;54688;52.376;16.744;2023-05-10T16:38:24;29.6;21.1
67893;DHT22;54688;52.376;16.744;2023-05-10T16:41:26;29.8;21.1
67893;DHT22;54688;52.376;16.744;2023-05-10T16:44:28;30.1;20.9
67893;DHT22;54688;52.376;16.744;2023-05-10T16:47:30;30.1;20.8
67893;DHT22;54688;52.376;16.744;2023-05-10T16:50:32;29.8;20.6
67893;DHT22;54688;52.376;16.744;2023-05-10T16:53:33;29.3;21
67893;DHT22;54688;52.376;16.744;2023-05-10T16:56:36;28.8;21.5
67893;DHT22;54688;52.376;16.744;2023-05-10T16:59:38;28.1;22.6
67893;DHT22;54688;52.376;16.744;2023-05-10T17:02:40;27.6;22.6
67893;DHT22;54688;52.376;16.744;2023-05-10T17:05:42;27.1;22.9
67893;DHT22;54688;52.376;16.744;2023-05-10T17:08:44;26.7;23.2
67893;DHT22;54688;52.376;16.744;2023-05-10T17:11:47;26.4;23.6
67893;DHT22;54688;52.376;16.744;2023-05-10T17:14:49;26.1;23.7
67893;DHT22;54688;52.376;16.744;2023-05-10T17:17:51;25.7;24
67893;DHT22;54688;52.376;16.744;2023-05-10T17:20:53;25.6;24.7
67893;DHT22;54688;52.376;16.744;2023-05-10T17:23:55;25.6;24.5
67893;DHT22;54688;52.376;16.744;2023-05-10T17:26:57;25.7;24.6
67893;DHT22;54688;52.376;16.744;2023-05-10T17:29:58;25.7;24.5
67893;DHT22;54688;52.376;16.744;2023-05-10T17:33:00;25.8;24.3
67893;DHT22;54688;52.376;16.744;2023-05-10T17:36:02;25.7;24.1
67893;DHT22;54688;52.376;16.744;2023-05-10T17:39:05;25.6;24.3
67893;DHT22;54688;52.376;16.744;2023-05-10T17:42:07;25.6;24.1
67893;DHT22;54688;52.376;16.744;2023-05-10T17:45:10;25.3;24.2
67893;DHT22;54688;52.376;16.744;2023-05-10T17:48:12;25.1;24.4
67893;DHT22;54688;52.376;16.744;2023-05-10T17:54:21;24.3;25.1
67893;DHT22;54688;52.376;16.744;2023-05-10T17:57:23;24.3;25.1
67893;DHT22;54688;52.376;16.744;2023-05-10T18:00:25;23.9;25.5
67893;DHT22;54688;52.376;16.744;2023-05-10T18:03:27;23.5;25.9
67893;DHT22;54688;52.376;16.744;2023-05-10T18:06:29;23.2;26.1
67893;DHT22;54688;52.376;16.744;2023-05-10T18:09:31;22.9;26.5
67893;DHT22;54688;52.376;16.744;2023-05-10T18:12:33;22.6;26.9
67893;DHT22;54688;52.376;16.744;2023-05-10T18:21:34;21.5;28.3
67893;DHT22;54688;52.376;16.744;2023-05-10T18:24:37;21.3;28.8
67893;DHT22;54688;52.376;16.744;2023-05-10T18:27:39;20.9;29.2
67893;DHT22;54688;52.376;16.744;2023-05-10T18:30:41;20.7;29.6
67893;DHT22;54688;52.376;16.744;2023-05-10T18:33:44;20.5;30
67893;DHT22;54688;52.376;16.744;2023-05-10T18:36:47;20.2;30.3
67893;DHT22;54688;52.376;16.744;2023-05-10T18:39:49;20;30.9
67893;DHT22;54688;52.376;16.744;2023-05-10T18:42:51;19.8;31.3
67893;DHT22;54688;52.376;16.744;2023-05-10T18:45:54;19.6;31.3
67893;DHT22;54688;52.376;16.744;2023-05-10T18:48:56;19.5;31.7
67893;DHT22;54688;52.376;16.744;2023-05-10T18:51:58;19.4;31.8
67893;DHT22;54688;52.376;16.744;2023-05-10T18:55:00;19.2;32.1
67893;DHT22;54688;52.376;16.744;2023-05-10T18:58:02;19.1;33.4
67893;DHT22;54688;52.376;16.744;2023-05-10T19:01:04;18.9;33
67893;DHT22;54688;52.376;16.744;2023-05-10T19:04:06;18.8;33.2
67893;DHT22;54688;52.376;16.744;2023-05-10T19:07:09;18.6;33.4
67893;DHT22;54688;52.376;16.744;2023-05-10T19:10:12;18.5;33.4
67893;DHT22;54688;52.376;16.744;2023-05-10T19:16:11;18.3;32.8
67893;DHT22;54688;52.376;16.744;2023-05-10T19:19:14;18.2;33.8
67893;DHT22;54688;52.376;16.744;2023-05-10T19:22:17;18.1;34
67893;DHT22;54688;52.376;16.744;2023-05-10T19:25:19;18;34.1
67893;DHT22;54688;52.376;16.744;2023-05-10T19:28:22;17.9;34.2
67893;DHT22;54688;52.376;16.744;2023-05-10T19:31:23;17.8;34.4
67893;DHT22;54688;52.376;16.744;2023-05-10T19:34:25;17.7;34.6
67893;DHT22;54688;52.376;16.744;2023-05-10T19:37:27;17.6;34.9
67893;DHT22;54688;52.376;16.744;2023-05-10T19:40:29;17.6;34.7
67893;DHT22;54688;52.376;16.744;2023-05-10T19:43:31;17.4;35
67893;DHT22;54688;52.376;16.744;2023-05-10T19:46:34;17.3;34.6
67893;DHT22;54688;52.376;16.744;2023-05-10T19:49:36;17.2;35.3
67893;DHT22;54688;52.376;16.744;2023-05-10T19:52:38;17.1;35.5
67893;DHT22;54688;52.376;16.744;2023-05-10T19:55:40;17;35.8
67893;DHT22;54688;52.376;16.744;2023-05-10T19:58:42;16.9;35.7
67893;DHT22;54688;52.376;16.744;2023-05-10T20:01:44;16.9;36.1
67893;DHT22;54688;52.376;16.744;2023-05-10T20:04:46;16.8;35.6
67893;DHT22;54688;52.376;16.744;2023-05-10T20:07:48;16.6;36.1
67893;DHT22;54688;52.376;16.744;2023-05-10T20:10:50;16.6;36.3
67893;DHT22;54688;52.376;16.744;2023-05-10T20:13:52;16.4;36.4